Time;durP1;ratioP1;P1;durP2;ratioP2;P2;SDS_P1;SDS_P2;PMS_P1;PMS_P2;Temp;Humidity;BMP_temperature;BMP_pressure;BME280_temperature;BME280_humidity;BME280_pressure;Samples;Min_cycle;Max_cycle;Signal;HPM_P1;HPM_P2
2022/10/11 00:00:10;;;;;;;0.73;0.73;;;;;;;2.78;90.67;99970.00;4985940;28;20085;-92
2022/10/11 00:02:40;;;;;;;0.70;0.70;;;;;;;2.73;91.12;99975.00;4999422;28;20073;-93
2022/10/11 00:05:20;;;;;;;0.70;0.70;;;;;;;2.54;91.52;99969.06;5084946;28;20432;-94
2022/10/11 00:07:57;;;;;;;0.70;0.70;;;;;;;2.47;91.60;99960.06;5123749;27;1335758;-94
2022/10/11 00:10:34;;;;;;;0.70;0.70;;;;;;;2.44;92.10;99949.75;5119704;27;1340398;-94
2022/10/11 00:13:16;;;;;;;0.70;0.70;;;;;;;2.35;92.29;99948.91;5122778;27;20413;-95
2022/10/11 00:15:54;;;;;;;0.80;0.80;;;;;;;2.44;92.47;99965.75;5123144;27;20508;-93
2022/10/11 00:18:42;;;;;;;0.80;0.80;;;;;;;2.43;93.04;99958.75;5152507;27;20048;-94
2022/10/11 00:21:25;;;;;;;0.75;0.75;;;;;;;2.48;93.03;99956.41;5082353;28;20428;-93
2022/10/11 00:24:06;;;;;;;0.73;0.73;;;;;;;2.42;92.84;99951.75;5126130;27;1342444;-93
2022/10/11 00:26:51;;;;;;;0.80;0.80;;;;;;;2.46;93.08;99963.75;5087693;28;20407;-93
2022/10/11 00:29:33;;;;;;;0.70;0.70;;;;;;;2.36;93.26;99952.44;5103069;27;20430;-94
2022/10/11 00:32:13;;;;;;;0.70;0.70;;;;;;;2.27;93.20;99937.44;5117183;27;1364940;-93
2022/10/11 00:34:51;;;;;;;0.90;0.90;;;;;;;2.18;93.34;99947.28;5116399;27;1387930;-93
2022/10/11 00:37:34;;;;;;;0.70;0.70;;;;;;;2.21;93.62;99941.63;5122119;27;1375001;-93
2022/10/11 00:40:17;;;;;;;0.70;0.70;;;;;;;2.20;93.72;99955.91;5124959;27;1358913;-93
2022/10/11 00:42:58;;;;;;;0.80;0.80;;;;;;;2.20;94.18;99944.44;5086742;27;20403;-93
2022/10/11 00:46:52;;;;;;;0.80;0.80;;;;;;;2.19;93.94;99950.78;5090594;27;1343139;-93
2022/10/11 00:49:44;;;;;;;0.70;0.70;;;;;;;2.20;93.83;99944.44;5118297;27;20402;-94
2022/10/11 00:52:30;;;;;;;0.80;0.80;;;;;;;2.08;93.91;99944.78;5061143;27;2855890;-94
2022/10/11 00:55:16;;;;;;;0.70;0.70;;;;;;;2.10;94.14;99952.59;5115107;27;1364545;-93
2022/10/11 00:57:56;;;;;;;0.70;0.70;;;;;;;2.20;94.74;99955.09;5067415;27;2695106;-93
2022/10/11 01:00:38;;;;;;;0.88;0.88;;;;;;;2.25;94.39;99939.44;5077875;28;20814;-94
2022/10/11 01:03:19;;;;;;;0.70;0.70;;;;;;;2.36;93.85;99944.44;5078586;28;20420;-93
2022/10/11 01:06:17;;;;;;;0.80;0.80;;;;;;;2.23;93.65;99944.09;5120611;27;1327086;-93
2022/10/11 01:08:54;;;;;;;0.80;0.80;;;;;;;2.15;93.86;99951.13;5116255;27;1377982;-93
2022/10/11 01:11:48;;;;;;;0.70;0.70;;;;;;;2.06;94.25;99943.28;5068699;27;2738221;-93
2022/10/11 01:14:50;;;;;;;0.80;0.80;;;;;;;2.05;94.11;99950.44;5114623;27;20424;-94
2022/10/11 01:18:08;;;;;;;0.70;0.70;;;;;;;1.95;94.34;99939.13;5081494;28;20397;-93
2022/10/11 01:21:08;;;;;;;0.90;0.90;;;;;;;1.81;94.55;99934.47;5142111;27;20880;-94
2022/10/11 01:23:59;;;;;;;0.80;0.80;;;;;;;1.77;95.00;99938.44;5081833;28;20801;-94
2022/10/11 01:27:05;;;;;;;0.80;0.80;;;;;;;1.76;95.43;99929.63;5100779;27;20138;-94
2022/10/11 01:30:15;;;;;;;0.80;0.80;;;;;;;1.72;95.49;99925.63;5079066;27;20779;-95
2022/10/11 01:33:22;;;;;;;0.70;0.70;;;;;;;1.71;95.50;99926.63;5109494;27;1342494;-93
2022/10/11 01:36:15;;;;;;;0.80;0.80;;;;;;;1.76;95.91;99931.47;5116241;27;1354495;-95
2022/10/11 01:39:04;;;;;;;0.73;0.73;;;;;;;1.83;95.28;99938.63;5078562;28;20401;-95
2022/10/11 01:41:50;;;;;;;0.80;0.80;;;;;;;1.72;95.39;99931.78;5061553;27;2749775;-93
2022/10/11 01:44:26;;;;;;;0.80;0.80;;;;;;;1.65;95.12;99933.44;5117032;27;1335338;-94
2022/10/11 01:47:21;;;;;;;0.80;0.80;;;;;;;1.55;95.35;99942.56;5139844;28;20141;-92
2022/10/11 01:50:04;;;;;;;0.80;0.80;;;;;;;1.44;95.80;99941.91;5140123;27;20383;-94
2022/10/11 01:52:42;;;;;;;0.80;0.80;;;;;;;1.42;95.89;99935.03;5116442;27;1343790;-93
2022/10/11 01:55:33;;;;;;;0.70;0.70;;;;;;;1.40;96.05;99937.06;5117557;27;1396344;-93
2022/10/11 01:58:26;;;;;;;0.80;0.80;;;;;;;1.45;96.68;99942.72;5068902;27;2696737;-94
2022/10/11 02:02:20;;;;;;;0.90;0.90;;;;;;;1.56;96.62;99938.91;5079901;27;20390;-94
2022/10/11 02:05:35;;;;;;;0.90;0.90;;;;;;;1.59;96.43;99936.75;5079584;28;20439;-93
2022/10/11 02:08:35;;;;;;;0.80;0.80;;;;;;;1.53;96.34;99950.72;5116853;27;1358823;-93
2022/10/11 02:11:29;;;;;;;0.60;0.60;;;;;;;1.42;96.49;99948.34;5078115;27;20386;-94
2022/10/11 02:14:11;;;;;;;0.80;0.80;;;;;;;1.33;96.45;99944.00;5118381;27;1377077;-93
2022/10/11 02:17:58;;;;;;;0.80;0.80;;;;;;;1.20;96.70;99945.28;5078012;27;20805;-93
2022/10/11 02:20:40;;;;;;;0.70;0.70;;;;;;;1.19;96.82;99942.78;5119322;27;1337395;-94
2022/10/11 02:23:39;;;;;;;0.77;0.77;;;;;;;1.23;97.24;99938.81;5124256;27;1332437;-94
2022/10/11 02:26:16;;;;;;;0.70;0.70;;;;;;;1.14;97.12;99918.50;5124613;27;1346345;-93
2022/10/11 02:28:56;;;;;;;0.80;0.80;;;;;;;1.26;97.42;99938.50;5076922;27;2547591;-93
2022/10/11 02:31:36;;;;;;;0.80;0.80;;;;;;;1.24;97.54;99936.00;5122180;27;20428;-95
2022/10/11 02:34:38;;;;;;;0.68;0.68;;;;;;;1.32;97.58;99940.53;5082256;27;20432;-94
2022/10/11 02:37:43;;;;;;;0.85;0.85;;;;;;;1.29;97.81;99940.81;5124098;27;20392;-94
2022/10/11 02:40:41;;;;;;;0.70;0.70;;;;;;;1.29;98.15;99952.31;5126352;27;1332446;-95
2022/10/11 02:43:40;;;;;;;0.80;0.80;;;;;;;1.34;98.26;99941.16;5127751;27;1327221;-93
2022/10/11 02:46:17;;;;;;;0.70;0.70;;;;;;;1.26;97.71;99955.28;5106143;27;1330991;-94
2022/10/11 02:48:59;;;;;;;0.80;0.80;;;;;;;1.23;98.07;99946.81;5092657;27;20387;-94
2022/10/11 02:51:44;;;;;;;0.60;0.60;;;;;;;1.16;98.15;99946.59;5130945;27;1349059;-93
2022/10/11 02:54:22;;;;;;;0.80;0.80;;;;;;;1.19;98.09;99948.97;5087923;27;2585775;-94
2022/10/11 02:57:02;;;;;;;0.88;0.88;;;;;;;1.17;98.24;99950.13;5129312;27;1340499;-94
2022/10/11 02:59:47;;;;;;;0.90;0.90;;;;;;;1.17;98.12;99947.47;5112160;27;1337095;-93
2022/10/11 03:02:24;;;;;;;0.80;0.80;;;;;;;1.15;98.14;99944.13;5134857;27;1354661;-94
2022/10/11 03:05:05;;;;;;;0.80;0.80;;;;;;;1.13;97.73;99946.09;5077672;28;20399;-93
2022/10/11 03:07:43;;;;;;;0.80;0.80;;;;;;;1.00;97.78;99950.03;5115548;27;1421508;-93
2022/10/11 03:10:29;;;;;;;0.80;0.80;;;;;;;0.88;97.73;99945.16;5124191;27;1331202;-93
2022/10/11 03:13:39;;;;;;;0.73;0.73;;;;;;;0.85;97.60;99941.00;5123981;27;1337600;-94
2022/10/11 03:16:19;;;;;;;0.80;0.80;;;;;;;0.60;97.50;99932.06;5086584;28;20914;-93
2022/10/11 03:18:59;;;;;;;0.80;0.80;;;;;;;0.54;97.42;99944.16;5124737;27;1338859;-93
2022/10/11 03:21:40;;;;;;;0.90;0.90;;;;;;;0.46;97.72;99944.09;5120893;27;1379135;-93
2022/10/11 03:24:16;;;;;;;0.70;0.70;;;;;;;0.50;98.18;99939.31;4996959;27;4692457;-94
2022/10/11 03:27:02;;;;;;;0.82;0.82;;;;;;;0.56;98.69;99946.66;5080609;28;20428;-93
2022/10/11 03:29:40;;;;;;;0.80;0.80;;;;;;;0.53;98.87;99918.59;5117555;27;1374721;-94
2022/10/11 03:32:20;;;;;;;0.80;0.80;;;;;;;0.67;98.92;99934.94;5099834;27;20414;-94
2022/10/11 03:34:57;;;;;;;0.82;0.82;;;;;;;0.71;99.12;99933.59;5122352;27;1338572;-93
2022/10/11 03:37:40;;;;;;;0.88;0.88;;;;;;;0.77;99.25;99933.00;5117471;27;1336864;-94
2022/10/11 03:40:22;;;;;;;0.80;0.80;;;;;;;0.79;99.03;99931.00;5120587;27;20425;-94
2022/10/11 03:43:02;;;;;;;0.88;0.88;;;;;;;0.72;99.00;99917.53;5067270;27;2746805;-95
2022/10/11 03:45:45;;;;;;;0.80;0.80;;;;;;;0.72;99.15;99914.84;5081663;27;2334587;-93
2022/10/11 03:48:22;;;;;;;0.82;0.82;;;;;;;0.78;99.15;99924.84;5117480;27;1338867;-95
2022/10/11 03:51:16;;;;;;;0.85;0.85;;;;;;;0.82;99.09;99912.09;5115994;27;1338109;-93
2022/10/11 03:54:03;;;;;;;0.80;0.80;;;;;;;0.75;98.97;99909.22;5142922;28;20051;-93
2022/10/11 03:56:49;;;;;;;0.80;0.80;;;;;;;0.76;98.82;99910.03;5075747;27;2562490;-94
2022/10/11 03:59:28;;;;;;;0.90;0.90;;;;;;;0.61;98.49;99907.19;5120587;27;20429;-93
2022/10/11 04:02:08;;;;;;;0.82;0.82;;;;;;;0.60;99.03;99916.13;5120468;27;1337486;-93
2022/10/11 04:04:50;;;;;;;0.80;0.80;;;;;;;0.54;98.62;99924.72;5110209;27;1335477;-93
2022/10/11 04:07:29;;;;;;;0.95;0.95;;;;;;;0.39;98.38;99904.06;5055158;27;2856472;-93
2022/10/11 04:10:07;;;;;;;0.90;0.90;;;;;;;0.48;98.61;99923.53;5093470;28;20133;-93
2022/10/11 04:12:49;;;;;;;0.70;0.70;;;;;;;0.37;98.54;99913.16;5107075;27;1369940;-94
2022/10/11 04:15:46;;;;;;;0.80;0.80;;;;;;;0.39;98.43;99914.69;5074759;27;2656527;-93
2022/10/11 04:18:33;;;;;;;0.80;0.80;;;;;;;0.34;98.69;99908.19;5067471;28;20443;-94
2022/10/11 04:21:21;;;;;;;0.80;0.80;;;;;;;0.35;98.80;99910.66;5088692;27;1340708;-90
2022/10/11 04:23:59;;;;;;;0.90;0.90;;;;;;;0.54;99.19;99917.59;5117003;27;1353926;-92
2022/10/11 04:26:43;;;;;;;0.80;0.80;;;;;;;0.58;99.43;99912.78;5083204;27;2429651;-93
2022/10/11 04:29:19;;;;;;;0.90;0.90;;;;;;;0.63;99.63;99913.13;5119602;27;1331732;-93
2022/10/11 04:31:58;;;;;;;0.80;0.80;;;;;;;0.60;99.47;99902.84;5086847;27;2425397;-93
2022/10/11 04:34:44;;;;;;;0.77;0.77;;;;;;;0.66;99.83;99899.56;5024523;27;2618431;-91
2022/10/11 04:37:37;;;;;;;0.88;0.88;;;;;;;0.77;99.65;99917.88;4785751;27;10001922;-93
2022/10/11 04:50:52;;;;;;;0.90;0.90;;;;;;;1.05;98.62;99923.81;6138354;22;1743252;-92
2022/10/11 04:54:21;;;;;;;0.90;0.90;;;;;;;1.30;97.86;99926.53;6172315;23;20051;-91
2022/10/11 04:57:29;;;;;;;0.80;0.80;;;;;;;1.50;97.04;99917.28;5108770;27;1427005;-93
2022/10/11 05:00:13;;;;;;;0.90;0.90;;;;;;;1.52;96.60;99927.78;5104442;27;1360204;-92
2022/10/11 05:13:15;;;;;;;0.90;0.90;;;;;;;1.80;95.06;99927.44;5042439;28;20405;-91
2022/10/11 05:16:05;;;;;;;0.90;0.90;;;;;;;1.86;94.46;99924.97;5121208;27;20419;-94
2022/10/11 05:29:14;;;;;;;0.90;0.90;;;;;;;2.08;93.55;99925.31;5016585;27;4013323;-91
2022/10/11 05:31:50;;;;;;;0.80;0.80;;;;;;;2.23;93.22;99923.66;5115137;27;1333762;-91
2022/10/11 05:34:31;;;;;;;0.80;0.80;;;;;;;2.30;93.04;99908.63;5027309;27;4053977;-90
2022/10/11 05:37:11;;;;;;;0.80;0.80;;;;;;;2.48;92.71;99921.78;5052736;27;2657423;-90
2022/10/11 05:39:59;;;;;;;0.75;0.75;;;;;;;2.65;92.51;99930.53;5077148;28;20425;-90
2022/10/11 05:42:36;;;;;;;0.80;0.80;;;;;;;2.83;92.22;99917.00;5102733;27;1355737;-89
2022/10/11 05:45:22;;;;;;;0.90;0.90;;;;;;;3.04;91.96;99914.59;5073064;28;20793;-89
2022/10/11 05:48:13;;;;;;;0.80;0.80;;;;;;;3.33;91.26;99922.97;5073078;28;20391;-89
2022/10/11 05:50:50;;;;;;;0.80;0.80;;;;;;;3.49;90.59;99912.16;5076024;27;2369356;-90
2022/10/11 05:53:30;;;;;;;0.77;0.77;;;;;;;3.69;89.73;99913.38;5074571;28;20436;-91
2022/10/11 05:56:20;;;;;;;0.70;0.70;;;;;;;3.90;89.30;99914.59;5112658;27;1332011;-90
2022/10/11 05:58:56;;;;;;;0.90;0.90;;;;;;;4.18;87.98;99909.50;5074855;27;2393139;-91
2022/10/11 06:01:39;;;;;;;0.80;0.80;;;;;;;4.45;86.54;99901.88;5093682;27;20390;-88
2022/10/11 06:04:20;;;;;;;0.80;0.80;;;;;;;4.65;85.32;99894.97;5075607;28;20428;-90
2022/10/11 06:06:58;;;;;;;0.77;0.77;;;;;;;4.77;84.04;99906.88;5117604;27;1333661;-90
2022/10/11 06:09:38;;;;;;;0.80;0.80;;;;;;;4.87;83.64;99901.25;5073640;28;20403;-89
2022/10/11 06:12:16;;;;;;;0.73;0.73;;;;;;;5.02;82.86;99898.56;5113856;27;1388545;-89
2022/10/11 06:15:22;;;;;;;0.80;0.80;;;;;;;5.27;81.19;99903.59;5140732;27;20417;-89
2022/10/11 06:18:24;;;;;;;0.80;0.80;;;;;;;5.48;80.33;99894.78;5077861;27;20819;-89
2022/10/11 06:21:09;;;;;;;0.80;0.80;;;;;;;5.63;79.08;99891.00;4518058;27;18536003;-89
2022/10/11 06:23:50;;;;;;;0.80;0.80;;;;;;;5.73;78.66;99897.91;4179423;27;26944958;-91
2022/10/11 06:26:59;;;;;;;0.70;0.70;;;;;;;5.88;78.04;99887.13;5199362;27;20398;-88
2022/10/11 06:29:40;;;;;;;0.80;0.80;;;;;;;6.09;77.31;99889.81;4171936;27;27030428;-88
2022/10/11 06:32:40;;;;;;;0.70;0.70;;;;;;;6.25;75.62;99892.22;5121750;27;20466;-89
2022/10/11 06:35:40;;;;;;;0.90;0.90;;;;;;;6.34;74.89;99894.75;5096935;27;20407;-89
2022/10/11 06:38:40;;;;;;;0.80;0.80;;;;;;;6.47;74.39;99892.97;5139354;27;20436;-89
2022/10/11 06:41:43;;;;;;;0.80;0.80;;;;;;;6.57;73.48;99892.63;5202429;27;20539;-90
2022/10/11 06:44:58;;;;;;;0.70;0.70;;;;;;;6.73;72.67;99891.47;5142019;27;20935;-89
2022/10/11 06:47:44;;;;;;;0.80;0.80;;;;;;;6.88;72.12;99886.00;4513180;27;18631932;-89
2022/10/11 06:50:41;;;;;;;0.80;0.80;;;;;;;7.04;71.27;99883.00;5096417;27;20419;-90
2022/10/11 06:53:37;;;;;;;0.80;0.80;;;;;;;7.13;70.06;99880.94;4508583;27;18851955;-91
2022/10/11 06:56:49;;;;;;;0.80;0.80;;;;;;;7.23;69.26;99872.53;5150805;27;20447;-90
2022/10/11 06:59:33;;;;;;;0.80;0.80;;;;;;;7.33;68.61;99879.16;4515733;27;18611317;-90
2022/10/11 07:02:11;;;;;;;0.80;0.80;;;;;;;7.40;67.60;99881.88;4644024;27;15061342;-90
2022/10/11 07:05:05;;;;;;;0.85;0.85;;;;;;;7.49;67.51;99867.19;5099544;27;20415;-89
2022/10/11 07:08:28;;;;;;;0.82;0.82;;;;;;;7.81;65.13;99887.09;5144436;27;20444;-90
2022/10/11 07:12:04;;;;;;;0.80;0.80;;;;;;;7.73;64.88;99881.13;3996759;27;33381118;-90
2022/10/11 07:14:41;;;;;;;0.90;0.90;;;;;;;7.69;64.37;99879.84;4068485;27;30195439;-91
2022/10/11 07:17:18;;;;;;;0.80;0.80;;;;;;;7.85;63.99;99875.94;4524574;27;18641882;-90
2022/10/11 07:20:18;;;;;;;0.82;0.82;;;;;;;8.11;62.95;99888.59;5163975;27;20481;-91
2022/10/11 07:23:46;;;;;;;0.80;0.80;;;;;;;8.36;61.94;99881.53;4517026;27;18765939;-89
2022/10/11 07:26:50;;;;;;;0.70;0.70;;;;;;;8.58;60.83;99879.47;5099076;27;20411;-90
2022/10/11 07:43:01;;;;;;;0.80;0.80;;;;;;;9.71;56.27;99867.38;4185578;28;15191705;-89
2022/10/11 07:45:54;;;;;;;0.90;0.90;;;;;;;10.13;54.34;99878.47;5098060;27;20411;-93
2022/10/11 07:48:42;;;;;;;0.80;0.80;;;;;;;10.38;53.64;99868.53;5071281;28;20057;-93
2022/10/11 07:51:40;;;;;;;0.80;0.80;;;;;;;10.62;52.83;99868.69;5189589;27;20418;-90
2022/10/11 07:54:47;;;;;;;0.70;0.70;;;;;;;11.03;51.29;99870.72;5135029;27;20406;-91
2022/10/11 07:57:33;;;;;;;0.70;0.70;;;;;;;11.27;50.28;99868.97;4506352;27;18573291;-93
2022/10/11 08:00:16;;;;;;;0.80;0.80;;;;;;;11.48;49.68;99856.00;4645361;27;15065535;-90
2022/10/11 08:02:53;;;;;;;0.70;0.70;;;;;;;11.94;49.20;99865.34;4509389;27;18711647;-92
2022/10/11 08:05:37;;;;;;;0.80;0.80;;;;;;;12.18;48.24;99855.38;4535649;27;17895684;-93
2022/10/11 08:08:44;;;;;;;0.80;0.80;;;;;;;12.70;46.92;99851.94;5151224;27;20425;-90
2022/10/11 08:11:27;;;;;;;0.80;0.80;;;;;;;12.98;45.84;99853.88;4613490;27;15109498;-90
2022/10/11 08:14:40;;;;;;;0.70;0.70;;;;;;;13.00;44.54;99857.19;5122541;27;20406;-88
2022/10/11 08:17:20;;;;;;;0.70;0.70;;;;;;;12.79;44.47;99850.53;4100072;27;30147536;-89
2022/10/11 08:20:08;;;;;;;0.75;0.75;;;;;;;13.01;44.85;99843.41;4618727;27;15062716;-87
2022/10/11 08:23:02;;;;;;;0.80;0.80;;;;;;;13.39;43.03;99841.16;5119558;27;20414;-89
2022/10/11 08:25:47;;;;;;;0.80;0.80;;;;;;;13.65;41.85;99847.91;4593584;27;15913367;-92
2022/10/11 08:28:28;;;;;;;0.70;0.70;;;;;;;13.75;40.81;99842.66;4162216;27;27070240;-91
2022/10/11 08:31:13;;;;;;;0.80;0.80;;;;;;;13.71;40.60;99833.34;4141916;27;27157941;-88
2022/10/11 08:33:55;;;;;;;0.70;0.70;;;;;;;13.88;40.53;99839.63;4498853;27;18730751;-90
2022/10/11 08:36:34;;;;;;;0.70;0.70;;;;;;;14.17;39.04;99844.13;4317562;27;24076261;-88
2022/10/11 08:39:13;;;;;;;0.70;0.70;;;;;;;14.59;38.46;99836.38;4196861;27;27188901;-89
2022/10/11 08:42:16;;;;;;;0.70;0.70;;;;;;;15.07;37.73;99836.72;5150647;27;20504;-90
2022/10/11 08:44:51;;;;;;;0.70;0.70;;;;;;;14.90;37.63;99832.16;5098509;28;20043;-90
2022/10/11 08:47:39;;;;;;;0.70;0.70;;;;;;;14.98;37.02;99832.78;5134881;28;20027;-89
2022/10/11 08:50:16;;;;;;;0.70;0.70;;;;;;;14.85;37.41;99828.56;5092250;28;20557;-88
2022/10/11 08:52:54;;;;;;;0.70;0.70;;;;;;;15.11;35.91;99819.63;5123745;28;20104;-89
2022/10/11 08:55:33;;;;;;;0.70;0.70;;;;;;;15.05;35.33;99817.13;5129472;28;20051;-88
2022/10/11 08:58:01;;;;;;;0.70;0.70;;;;;;;14.91;36.15;99814.78;5132368;28;20048;-89
2022/10/11 09:00:31;;;;;;;0.70;0.70;;;;;;;15.49;36.22;99809.69;5111156;28;20055;-89
2022/10/11 09:03:10;;;;;;;0.70;0.70;;;;;;;15.58;35.73;99805.44;5119638;22;20057;-91
2022/10/11 09:05:54;;;;;;;0.80;0.80;;;;;;;15.52;35.19;99798.31;5099083;28;20051;-92
2022/10/11 09:08:27;;;;;;;0.80;0.80;;;;;;;15.75;34.60;99802.63;5101053;28;20079;-92
2022/10/11 09:11:05;;;;;;;0.70;0.70;;;;;;;15.86;34.00;99800.81;5087956;28;20048;-90
2022/10/11 09:13:58;;;;;;;0.80;0.80;;;;;;;15.67;33.55;99791.34;5069571;28;20180;-91
2022/10/11 09:16:49;;;;;;;0.70;0.70;;;;;;;15.16;34.75;99792.50;5090231;28;20048;-91
2022/10/11 09:19:55;;;;;;;0.70;0.70;;;;;;;15.20;35.23;99786.56;5104538;28;20040;-92
2022/10/11 09:22:34;;;;;;;0.90;0.90;;;;;;;15.76;34.11;99785.22;5101659;28;20062;-94
2022/10/11 09:25:23;;;;;;;0.80;0.80;;;;;;;16.38;33.52;99778.31;5097005;28;20706;-92
2022/10/11 09:28:12;;;;;;;0.70;0.70;;;;;;;16.96;32.76;99775.56;5100457;28;20041;-94
2022/10/11 09:30:47;;;;;;;0.80;0.80;;;;;;;17.23;32.65;99774.56;5105721;28;20060;-93
2022/10/11 09:33:23;;;;;;;0.70;0.70;;;;;;;17.38;32.53;99777.31;5110417;28;20071;-93
2022/10/11 09:35:51;;;;;;;0.80;0.80;;;;;;;17.53;32.00;99774.59;5125142;28;20032;-93
2022/10/11 09:38:37;;;;;;;0.80;0.80;;;;;;;17.74;31.04;99766.41;5116445;28;20040;-91
2022/10/11 09:41:42;;;;;;;0.70;0.70;;;;;;;17.58;31.67;99762.06;5086154;28;20044;-88
2022/10/11 09:44:27;;;;;;;0.80;0.80;;;;;;;17.89;31.65;99760.16;5084267;28;20060;-90
2022/10/11 09:46:55;;;;;;;0.70;0.70;;;;;;;18.10;30.41;99761.75;5081099;28;20045;-91
2022/10/11 09:49:29;;;;;;;0.70;0.70;;;;;;;18.25;30.40;99752.72;5085885;28;20052;-93
2022/10/11 09:51:59;;;;;;;0.70;0.70;;;;;;;18.21;30.17;99753.56;5120662;27;20032;-93
2022/10/11 09:54:41;;;;;;;0.60;0.60;;;;;;;17.74;29.82;99745.38;5114992;28;20044;-93
2022/10/11 09:57:25;;;;;;;0.70;0.70;;;;;;;17.59;30.16;99736.38;5073822;28;20035;-92
2022/10/11 09:59:59;;;;;;;0.70;0.70;;;;;;;17.94;29.01;99743.78;5087484;28;20051;-91
2022/10/11 10:02:29;;;;;;;0.70;0.70;;;;;;;17.85;28.15;99742.69;5078479;28;20045;-94
2022/10/11 10:05:10;;;;;;;0.70;0.70;;;;;;;17.92;28.66;99743.22;5083376;28;20048;-95
2022/10/11 10:07:39;;;;;;;0.60;0.60;;;;;;;18.04;28.15;99740.22;5088198;28;20048;-93
2022/10/11 10:10:42;;;;;;;0.70;0.70;;;;;;;18.01;27.86;99740.78;5069620;28;20051;-91
2022/10/11 10:13:21;;;;;;;0.70;0.70;;;;;;;18.08;27.81;99736.66;5069884;28;20125;-93
2022/10/11 10:15:52;;;;;;;0.60;0.60;;;;;;;18.12;27.74;99735.00;5078865;28;20149;-93
2022/10/11 10:18:36;;;;;;;0.70;0.70;;;;;;;17.83;28.11;99733.97;5082745;28;20167;-88
2022/10/11 10:21:06;;;;;;;0.70;0.70;;;;;;;18.02;28.07;99728.75;5083202;28;20052;-95
2022/10/11 10:23:35;;;;;;;0.60;0.60;;;;;;;18.24;27.31;99731.16;5079097;28;20076;-96
2022/10/11 10:26:25;;;;;;;0.65;0.65;;;;;;;18.55;26.80;99726.41;5026212;28;20121;-94
2022/10/11 10:29:30;;;;;;;0.60;0.60;;;;;;;18.37;26.87;99722.38;5008418;28;20076;-93
2022/10/11 10:32:22;;;;;;;0.68;0.68;;;;;;;18.30;26.33;99716.38;4995165;28;20074;-93
2022/10/11 10:35:22;;;;;;;0.60;0.60;;;;;;;18.35;26.51;99719.91;5001695;28;20576;-93
2022/10/11 10:38:39;;;;;;;0.60;0.60;;;;;;;18.50;25.99;99710.84;5014482;28;20053;-92
2022/10/11 10:41:20;;;;;;;0.60;0.60;;;;;;;18.76;26.16;99708.00;4997643;28;20098;-95
2022/10/11 10:44:09;;;;;;;0.60;0.60;;;;;;;18.60;25.68;99705.31;4996501;28;20041;-88
2022/10/11 10:47:09;;;;;;;0.70;0.70;;;;;;;18.40;26.78;99708.13;4976479;28;20065;-95
2022/10/11 10:50:13;;;;;;;0.60;0.60;;;;;;;18.94;26.44;99692.88;4981846;28;20057;-95
2022/10/11 10:53:10;;;;;;;0.60;0.60;;;;;;;19.35;25.54;99692.59;5008493;28;20054;-93
2022/10/11 10:55:42;;;;;;;0.60;0.60;;;;;;;19.92;24.97;99691.00;4990966;28;20181;-94
2022/10/11 10:58:11;;;;;;;0.60;0.60;;;;;;;19.92;24.67;99694.53;5027856;28;20060;-95
2022/10/11 11:01:00;;;;;;;0.63;0.63;;;;;;;19.90;24.96;99688.56;5013978;28;20054;-95
2022/10/11 11:03:41;;;;;;;0.60;0.60;;;;;;;20.14;24.14;99693.25;5033736;28;20061;-95
2022/10/11 11:06:18;;;;;;;0.60;0.60;;;;;;;20.28;24.53;99693.34;5043346;28;20043;-93
2022/10/11 11:09:18;;;;;;;0.70;0.70;;;;;;;20.32;24.12;99688.91;5033724;28;20041;-93
2022/10/11 11:12:09;;;;;;;0.70;0.70;;;;;;;20.73;23.96;99681.00;5064170;28;20056;-93
2022/10/11 11:14:43;;;;;;;0.60;0.60;;;;;;;20.99;24.00;99677.94;5109311;28;20048;-93
2022/10/11 11:17:36;;;;;;;0.60;0.60;;;;;;;21.07;24.71;99660.78;5092845;28;20028;-90
2022/10/11 11:20:23;;;;;;;0.70;0.70;;;;;;;21.35;24.03;99669.94;5101688;28;20028;-93
2022/10/11 11:23:37;;;;;;;0.60;0.60;;;;;;;21.02;24.27;99669.09;5103193;28;20043;-94
2022/10/11 11:26:50;;;;;;;0.70;0.70;;;;;;;20.84;24.56;99657.00;5020091;28;20596;-96
2022/10/11 11:29:37;;;;;;;0.68;0.68;;;;;;;20.57;25.48;99652.19;5051336;28;20056;-95
2022/10/11 11:32:35;;;;;;;0.60;0.60;;;;;;;20.87;25.60;99650.13;4971059;28;20047;-94
2022/10/11 11:39:15;;;;;;;0.60;0.60;;;;;;;21.30;24.73;99641.75;4954439;29;20026;-94
2022/10/11 11:41:47;;;;;;;0.60;0.60;;;;;;;21.58;24.06;99632.50;4968065;28;20105;-94
2022/10/11 11:44:21;;;;;;;0.50;0.50;;;;;;;21.21;23.97;99636.94;4987752;28;20046;-94
2022/10/11 11:47:00;;;;;;;0.50;0.50;;;;;;;20.82;24.96;99628.25;4980374;28;20298;-93
2022/10/11 11:49:34;;;;;;;0.50;0.50;;;;;;;20.97;24.99;99625.28;4978727;28;20062;-93
2022/10/11 11:52:04;;;;;;;0.60;0.60;;;;;;;21.04;23.92;99633.94;4993498;28;20098;-95
2022/10/11 11:55:13;;;;;;;0.60;0.60;;;;;;;21.07;23.78;99624.28;4977100;28;20875;-94
2022/10/11 11:58:06;;;;;;;0.60;0.60;;;;;;;20.66;24.48;99633.97;4928998;29;20115;-93
2022/10/11 12:00:48;;;;;;;0.50;0.50;;;;;;;20.51;24.16;99623.19;4913740;29;20052;-94
2022/10/11 12:03:23;;;;;;;0.50;0.50;;;;;;;19.81;25.02;99616.34;4944134;28;20062;-93
2022/10/11 12:06:15;;;;;;;0.57;0.57;;;;;;;19.43;26.20;99624.38;4966963;28;20054;-92
2022/10/11 12:08:45;;;;;;;0.50;0.50;;;;;;;19.41;25.94;99626.56;4966945;28;20076;-94
2022/10/11 12:11:37;;;;;;;0.50;0.50;;;;;;;19.53;26.09;99612.50;5005317;28;20070;-93
2022/10/11 12:14:37;;;;;;;0.50;0.50;;;;;;;19.81;27.39;99618.28;5026542;28;20055;-92
2022/10/11 12:17:30;;;;;;;0.50;0.50;;;;;;;19.74;25.98;99610.41;4950311;29;20143;-92
2022/10/11 12:20:26;;;;;;;0.50;0.50;;;;;;;19.28;26.12;99606.16;4967862;28;20055;-92
2022/10/11 12:22:59;;;;;;;0.50;0.50;;;;;;;18.98;26.47;99612.69;4987026;28;20125;-93
2022/10/11 12:25:27;;;;;;;0.50;0.50;;;;;;;18.67;27.05;99605.78;4970682;28;20518;-92
2022/10/11 12:28:38;;;;;;;0.60;0.60;;;;;;;19.01;27.34;99595.72;4982823;28;20051;-92
2022/10/11 12:31:18;;;;;;;0.60;0.60;;;;;;;19.25;27.39;99597.72;4967791;28;20078;-95
2022/10/11 12:33:47;;;;;;;0.60;0.60;;;;;;;19.78;26.42;99602.44;4998784;28;20056;-95
2022/10/11 12:36:36;;;;;;;0.60;0.60;;;;;;;20.16;26.30;99597.88;5035613;28;20065;-93
2022/10/11 12:39:18;;;;;;;0.60;0.60;;;;;;;20.61;25.03;99598.38;5034504;28;20045;-91
2022/10/11 12:42:20;;;;;;;0.60;0.60;;;;;;;21.14;25.13;99589.88;5027320;28;20081;-91
2022/10/11 12:45:12;;;;;;;0.60;0.60;;;;;;;20.73;25.18;99587.75;5045878;28;20046;-93
2022/10/11 12:47:41;;;;;;;0.60;0.60;;;;;;;20.64;24.75;99589.56;5040597;28;20094;-92
2022/10/11 12:50:17;;;;;;;0.50;0.50;;;;;;;21.13;24.18;99588.22;5013672;28;20037;-93
2022/10/11 12:53:00;;;;;;;0.50;0.50;;;;;;;21.41;24.31;99593.81;4999357;28;20051;-91
2022/10/11 12:55:48;;;;;;;0.60;0.60;;;;;;;21.60;24.11;99586.31;4722620;28;10000664;-93
2022/10/11 12:58:40;;;;;;;0.50;0.50;;;;;;;21.90;23.80;99584.06;5068477;28;20522;-91
2022/10/11 13:01:13;;;;;;;0.50;0.50;;;;;;;21.56;23.48;99581.75;5055600;28;20060;-92
2022/10/11 13:03:58;;;;;;;0.50;0.50;;;;;;;21.73;23.25;99583.91;5057326;28;20056;-92
2022/10/11 13:06:55;;;;;;;0.50;0.50;;;;;;;21.92;23.50;99576.34;5063819;28;20072;-93
2022/10/11 13:09:28;;;;;;;0.50;0.50;;;;;;;21.51;23.47;99577.16;5069733;28;20029;-93
2022/10/11 13:11:58;;;;;;;0.50;0.50;;;;;;;21.21;23.87;99571.06;5089012;28;20116;-91
2022/10/11 13:14:26;;;;;;;0.50;0.50;;;;;;;21.10;23.84;99569.63;5068479;28;20041;-92
2022/10/11 13:17:02;;;;;;;0.50;0.50;;;;;;;20.95;24.05;99567.13;5056333;28;20065;-94
2022/10/11 13:20:04;;;;;;;0.50;0.50;;;;;;;21.13;23.97;99569.00;5088740;28;20059;-93
2022/10/11 13:22:34;;;;;;;0.50;0.50;;;;;;;21.29;23.84;99566.81;5071589;28;20092;-87
2022/10/11 13:25:05;;;;;;;0.47;0.47;;;;;;;21.17;23.89;99566.50;5056950;28;20051;-95
2022/10/11 13:27:36;;;;;;;0.50;0.50;;;;;;;20.97;24.07;99557.50;5075676;28;20079;-96
2022/10/11 13:30:10;;;;;;;0.50;0.50;;;;;;;20.60;24.21;99566.56;5079254;28;20028;-94
2022/10/11 13:32:38;;;;;;;0.50;0.50;;;;;;;20.77;24.29;99560.56;5076646;28;20064;-92
2022/10/11 13:35:23;;;;;;;0.50;0.50;;;;;;;20.82;24.01;99552.25;5076732;28;20025;-94
2022/10/11 13:38:20;;;;;;;0.50;0.50;;;;;;;20.73;24.19;99563.06;5076346;28;20041;-94
2022/10/11 13:40:48;;;;;;;0.50;0.50;;;;;;;20.17;24.28;99561.13;5076166;28;20102;-93
2022/10/11 13:43:28;;;;;;;0.40;0.40;;;;;;;19.59;25.44;99556.59;5073612;28;20551;-94
2022/10/11 13:46:22;;;;;;;0.30;0.30;;;;;;;18.15;27.32;99556.06;5073726;28;20052;-94
2022/10/11 13:49:03;;;;;;;0.30;0.30;;;;;;;17.01;28.15;99553.91;5066829;28;20056;-92
2022/10/11 13:51:56;;;;;;;0.30;0.30;;;;;;;15.64;29.61;99555.16;5073325;28;20131;-94